Latest Weather Observations for Degrussa Aerodrome

IDW60801

Issued at 5:43 pm WST Sunday 19 August 2018 (issued every 10 minutes, with the page automatically refreshed every 10 minutes)

About weather observations | Map of weather stations | Latest weather observations for WA | Other Formats
Station Details ID: 507500 Name: DEGRUSSA AERODROME Lat: -25.56 Lon: 119.29 Height: 550.91 m
Data from the previous 72 hours. | See also: Recent months for locations in Western Australia
Date/Time
WST
Temp
°C
App
Temp
°C
Dew
Point
°C
Rel
Hum
%
Delta-T
°C
Wind Press
QNH
hPa
Press
MSL
hPa
Rain since
9am
mm
Dir  Spd
km/h
Gust
km/h
Spd
kts
Gust
kts
19/05:30pm 25.2 20.4 -2.4 16 12.5 ENE 13 17 7 9 1021.9 1020.9 0.0
19/05:00pm 25.8 21.0 -2.8 15 12.9 NE 13 22 7 12 1021.8 1020.8 0.0
19/04:30pm 26.5 22.1 -2.2 15 13.2 NE 11 22 6 12 1021.6 1020.6 0.0
19/04:00pm 26.7 21.6 -2.1 15 13.2 NNE 15 26 8 14 1021.6 1020.6 0.0
19/03:30pm 26.7 21.3 -1.2 16 13.1 NE 17 28 9 15 1021.5 1020.5 0.0
19/03:00pm 26.4 20.4 -1.4 16 12.9 NE 20 32 11 17 1021.8 1020.8 0.0
19/02:30pm 26.7 21.4 -0.3 17 12.9 NE 17 30 9 16 1021.8 1020.8 0.0
19/02:00pm 26.8 21.5 -0.3 17 12.9 ENE 17 24 9 13 1022.1 1021.1 0.0
19/01:30pm 25.6 19.9 -0.5 18 12.3 ENE 19 30 10 16 1022.4 1021.5 0.0
19/01:00pm 25.7 20.0 -0.4 18 12.3 ENE 19 32 10 17 1022.7 1021.8 0.0
19/12:30pm 24.7 19.5 0.3 20 11.6 ENE 17 26 9 14 1023.4 1022.4 0.0
19/12:00pm 23.9 18.5 1.5 23 10.8 ENE 19 30 10 16 1024.1 1023.2 0.0
19/11:30am 22.7 17.1 1.1 24 10.3 ENE 20 30 11 16 1024.6 1023.7 0.0
19/11:00am 21.4 15.9 1.7 27 9.3 ENE 20 32 11 17 1025.0 1024.0 0.0
19/10:30am 20.3 14.8 1.7 29 8.8 ENE 20 30 11 16 1025.5 1024.6 0.0
19/10:00am 19.2 13.9 1.7 31 8.1 ENE 19 28 10 15 1025.8 1024.9 0.0
19/09:30am 17.7 12.4 1.7 34 7.4 ENE 19 24 10 13 1026.1 1025.2 0.0
19/09:00am 16.5 10.6 1.4 36 6.8 ENE 22 30 12 16 1026.0 1025.1 0.0
19/08:30am 15.6 9.3 1.4 38 6.4 E 24 37 13 20 1025.7 1024.8 0.0
19/08:00am 14.6 8.2 1.2 40 5.9 E 24 37 13 20 1025.4 1024.5 0.0
19/07:30am 13.7 8.1 1.4 43 5.5 E 20 33 11 18 1025.1 1024.1 0.0
19/07:00am 13.0 7.4 1.4 45 5.1 E 20 32 11 17 1024.6 1023.7 0.0
19/06:30am 12.9 6.6 1.3 45 5.1 E 24 35 13 19 1024.1 1023.2 0.0
19/06:00am 12.9 7.3 1.3 45 5.1 E 20 30 11 16 1023.7 1022.7 0.0
19/05:30am 13.3 6.6 1.3 44 5.3 E 26 35 14 19 1023.2 1022.2 0.0
19/05:00am 13.7 7.0 1.4 43 5.4 E 26 37 14 20 1022.6 1021.7 0.0
19/04:30am 14.1 7.0 1.4 42 5.7 E 28 39 15 21 1022.3 1021.4 0.0
19/04:00am 14.4 7.7 1.7 42 5.7 E 26 44 14 24 1022.3 1021.4 0.0
19/03:30am 14.8 8.1 1.7 41 5.9 E 26 37 14 20 1022.2 1021.3 0.0
19/03:00am 15.2 8.6 2.1 41 6.0 E 26 39 14 21 1022.3 1021.4 0.0
19/02:30am 15.6 9.0 2.1 40 6.2 E 26 39 14 21 1022.3 1021.4 0.0
19/02:00am 16.0 9.0 2.1 39 6.4 E 28 39 15 21 1022.4 1021.5 0.0
19/01:30am 16.2 9.6 2.2 39 6.5 E 26 37 14 20 1022.5 1021.6 0.0
19/01:00am 16.4 10.2 2.4 39 6.5 E 24 35 13 19 1022.5 1021.6 0.0
19/12:30am 16.8 10.6 2.4 38 6.7 E 24 35 13 19 1022.6 1021.7 0.0
19/12:00am 17.3 11.2 2.5 37 6.9 E 24 33 13 18 1022.7 1021.8 0.0
 
Date/Time
WST
Temp
°C
App
Temp
°C
Dew
Point
°C
Rel
Hum
%
Delta-T
°C
Wind Press
QNH
hPa
Press
MSL
hPa
Rain since
9am
mm
Dir  Spd
km/h
Gust
km/h
Spd
kts
Gust
kts
18/11:30pm 17.8 11.7 2.5 36 7.2 E 24 35 13 19 1022.7 1021.8 0.0
18/11:00pm 18.3 12.6 2.6 35 7.4 E 22 32 12 17 1023.0 1022.0 0.0
18/10:30pm 18.9 13.1 2.3 33 7.8 E 22 32 12 17 1022.7 1021.8 0.0
18/10:00pm 19.2 13.0 2.1 32 8.0 E 24 33 13 18 1022.7 1021.8 0.0
18/09:30pm 18.9 13.3 1.4 31 8.1 ESE 20 26 11 14 1022.7 1021.8 0.0
18/09:00pm 19.5 14.1 1.0 29 8.5 ESE 19 24 10 13 1022.6 1021.7 0.0
18/08:30pm 20.1 15.4 1.0 28 8.9 ESE 15 19 8 10 1022.5 1021.6 0.0
18/08:00pm 20.9 15.9 1.2 27 9.2 ESE 17 20 9 11 1022.2 1021.3 0.0
18/07:30pm 21.1 16.9 1.4 27 9.3 ESE 13 17 7 9 1022.0 1021.0 0.0
18/07:00pm 21.9 17.7 1.6 26 9.6 ESE 13 19 7 10 1021.6 1020.6 0.0
18/06:30pm 22.8 18.5 1.2 24 10.3 ESE 13 17 7 9 1021.2 1020.2 0.0
18/06:00pm 23.9 19.6 0.9 22 10.9 E 13 19 7 10 1020.8 1019.9 0.0
18/05:30pm 24.9 19.9 1.1 21 11.5 E 17 26 9 14 1020.4 1019.4 0.0
18/05:00pm 25.3 20.5 0.0 19 12.0 ENE 15 24 8 13 1020.2 1019.2 0.0
18/04:30pm 26.0 21.4 1.3 20 12.1 ENE 15 22 8 12 1020.0 1019.0 0.0
18/04:00pm 26.2 22.0 1.5 20 12.1 NE 13 24 7 13 1019.9 1018.9 0.0
18/03:30pm 26.4 21.5 1.7 20 12.2 ENE 17 26 9 14 1019.8 1018.8 0.0
18/03:00pm 26.3 21.4 2.3 21 11.9 ENE 17 30 9 16 1019.8 1018.8 0.0
18/02:30pm 25.7 21.1 1.8 21 11.7 E 15 26 8 14 1020.0 1019.0 0.0
18/02:00pm 25.2 20.3 2.0 22 11.4 ENE 17 33 9 18 1020.2 1019.2 0.0
18/01:30pm 24.8 19.9 2.3 23 11.1 NE 17 30 9 16 1020.4 1019.4 0.0
18/01:00pm 25.1 19.9 2.5 23 11.2 ENE 19 30 10 16 1020.7 1019.8 0.0
18/12:30pm 24.1 18.3 2.3 24 10.7 ENE 22 33 12 18 1021.3 1020.3 0.0
18/12:00pm 23.9 18.1 2.1 24 10.6 E 22 32 12 17 1021.8 1020.8 0.0
18/11:30am 23.0 17.5 1.9 25 10.2 ENE 20 30 11 16 1022.2 1021.3 0.0
18/11:00am 21.8 15.9 1.5 26 9.6 ENE 22 32 12 17 1022.5 1021.6 0.0
18/10:30am 20.5 14.1 0.9 27 9.1 ENE 24 33 13 18 1023.1 1022.1 0.0
18/10:00am 19.7 12.5 0.7 28 8.7 ENE 28 37 15 20 1023.3 1022.3 0.0
18/09:30am 18.5 10.3 0.2 29 8.3 ENE 33 44 18 24 1023.2 1022.2 0.0
18/09:00am 17.6 10.0 0.3 31 7.7 E 30 44 16 24 1023.1 1022.1 0.0
18/08:30am 16.6 9.3 0.3 33 7.3 E 28 41 15 22 1023.0 1022.0 0.0
18/08:00am 15.3 9.5 -0.1 35 6.7 E 20 33 11 18 1023.1 1022.1 0.0
18/07:30am 13.9 8.1 -0.2 38 6.1 E 20 30 11 16 1022.7 1021.8 0.0
18/07:00am 13.1 7.9 -0.2 40 5.7 ESE 17 24 9 13 1022.4 1021.5 0.0
18/06:30am 12.8 7.5 -0.4 40 5.6 ESE 17 24 9 13 1022.0 1021.0 0.0
18/06:00am 13.2 7.4 -0.4 39 5.8 ESE 20 28 11 15 1021.5 1020.5 0.0
18/05:30am 13.3 8.0 -0.3 39 5.8 ESE 17 24 9 13 1021.3 1020.3 0.0
18/05:00am 13.5 8.6 -0.5 38 5.9 ESE 15 22 8 12 1021.0 1020.0 0.0
18/04:30am 13.6 8.7 -0.4 38 6.0 ESE 15 20 8 11 1020.6 1019.7 0.0
18/04:00am 14.0 8.8 -0.1 38 6.1 ESE 17 22 9 12 1020.5 1019.5 0.0
18/03:30am 14.4 8.8 -0.1 37 6.3 ESE 19 26 10 14 1020.4 1019.4 0.0
18/03:00am 14.7 9.1 0.2 37 6.3 ESE 19 28 10 15 1020.5 1019.5 0.0
18/02:30am 14.9 9.4 0.4 37 6.4 ESE 19 28 10 15 1020.4 1019.4 0.0
18/02:00am 15.2 9.8 1.0 38 6.3 ESE 19 26 10 14 1020.5 1019.5 0.0
18/01:30am 15.2 10.2 1.4 39 6.2 ESE 17 24 9 13 1020.5 1019.5 0.0
18/01:00am 15.6 10.6 1.4 38 6.4 ESE 17 22 9 12 1020.5 1019.5 0.0
18/12:30am 16.1 10.8 1.8 38 6.5 ESE 19 28 10 15 1020.5 1019.5 0.0
18/12:00am 16.7 11.2 1.6 36 6.9 SE 20 28 11 15 1020.2 1019.2 0.0
 
Date/Time
WST
Temp
°C
App
Temp
°C
Dew
Point
°C
Rel
Hum
%
Delta-T
°C
Wind Press
QNH
hPa
Press
MSL
hPa
Rain since
9am
mm
Dir  Spd
km/h
Gust
km/h
Spd
kts
Gust
kts
17/11:30pm 17.4 11.5 1.8 35 7.2 SE 22 32 12 17 1020.1 1019.1 0.0
17/11:00pm 17.9 12.4 1.8 34 7.5 SE 20 28 11 15 1019.9 1018.9 0.0
17/10:30pm 18.2 13.0 2.5 35 7.4 SE 19 24 10 13 1019.8 1018.8 0.0
17/10:00pm 18.4 13.6 2.7 35 7.4 SSE 17 22 9 12 1019.9 1018.9 0.0
17/09:30pm 19.0 13.9 2.8 34 7.7 SE 19 28 10 15 1019.7 1018.7 0.0
17/09:00pm 19.5 14.8 3.2 34 7.9 SSE 17 26 9 14 1019.5 1018.5 0.0
17/08:30pm 20.3 15.7 3.5 33 8.2 SE 17 22 9 12 1019.4 1018.4 0.0
17/08:00pm 20.2 16.3 3.4 33 8.2 SSE 13 17 7 9 1019.2 1018.2 0.0
17/07:30pm 21.3 17.4 3.5 31 8.8 SE 13 17 7 9 1018.9 1017.9 0.0
17/07:00pm 21.7 17.7 2.9 29 9.2 SE 13 17 7 9 1018.7 1017.7 0.0
17/06:30pm 22.1 18.5 2.8 28 9.4 S 11 15 6 8 1018.3 1017.3 0.0
17/06:00pm 23.6 21.2 2.4 25 10.4 SSW 4 6 2 3 1017.8 1016.8 0.0
17/05:30pm 24.6 21.7 2.7 24 10.9 SSW 7 11 4 6 1017.4 1016.3 0.0
17/05:00pm 25.1 22.4 2.5 23 11.2 SW 6 9 3 5 1017.1 1016.0 0.0
17/04:30pm 25.7 23.0 2.4 22 11.6 W 6 11 3 6 1016.7 1015.7 0.0
17/04:00pm 25.4 22.7 2.8 23 11.3 SW 6 13 3 7 1016.6 1015.6 0.0
17/03:30pm 25.7 22.9 3.0 23 11.4 WSW 7 15 4 8 1016.5 1015.5 0.0
17/03:00pm 25.8 23.3 3.7 24 11.2 SE 6 9 3 5 1016.5 1015.5 0.0
17/02:30pm 25.3 22.3 3.9 25 10.9 ESE 9 17 5 9 1016.6 1015.6 0.0
17/02:00pm 25.3 22.0 4.4 26 10.7 S 11 19 6 10 1016.8 1015.8 0.0
17/01:30pm 25.1 22.1 4.3 26 10.7 SE 9 19 5 10 1016.9 1015.9 0.0
17/01:00pm 24.3 20.5 4.1 27 10.2 ESE 13 22 7 12 1017.4 1016.3 0.0
17/12:30pm 23.4 19.6 3.9 28 9.8 ESE 13 19 7 10 1017.7 1016.7 0.0
17/12:00pm 23.3 19.6 4.3 29 9.6 ESE 13 24 7 13 1018.3 1017.3 0.0
17/11:30am 23.0 18.7 3.5 28 9.7 ESE 15 22 8 12 1018.7 1017.7 0.0
17/11:00am 21.9 17.7 3.6 30 9.0 ESE 15 26 8 14 1019.2 1018.2 0.0
17/10:30am 21.3 16.2 3.0 30 8.9 ESE 19 26 10 14 1019.5 1018.5 0.0
17/10:00am 20.2 14.9 2.1 30 8.6 ESE 19 28 10 15 1019.6 1018.6 0.0
17/09:30am 19.1 13.5 1.1 30 8.3 ESE 20 26 11 14 1019.7 1018.7 0.0
17/09:00am 18.1 12.6 0.3 30 8.0 SE 19 24 10 13 1019.5 1018.5 0.0
17/08:30am 16.9 11.0 -0.8 30 7.7 SE 20 30 11 16 1019.2 1018.2 0.0
17/08:00am 15.6 10.3 -0.6 33 7.0 SE 17 26 9 14 1019.1 1018.1 0.0
17/07:30am 14.2 8.9 -0.3 37 6.2 SSE 17 22 9 12 1018.9 1017.9 0.0
17/07:00am 12.5 8.5 0.6 44 5.1 SSE 11 17 6 9 1018.6 1017.6 0.0
17/06:30am 11.3 7.4 1.3 50 4.3 SSE 11 15 6 8 1018.2 1017.2 0.0
17/06:00am 11.1 8.1 1.9 53 4.0 S 7 9 4 5 1017.9 1016.9 0.0
17/05:30am 11.7 8.0 2.2 52 4.2 S 11 15 6 8 1017.7 1016.7 0.0
17/05:00am 12.1 8.8 2.6 52 4.3 S 9 11 5 6 1017.3 1016.2 0.0
17/04:30am 12.4 9.5 2.6 51 4.4 SSE 7 11 4 6 1017.1 1016.0 0.0
17/04:00am 12.8 9.9 2.6 50 4.6 S 7 9 4 5 1016.9 1015.9 0.0
17/03:30am 13.4 10.1 2.6 48 4.9 S 9 13 5 7 1016.9 1015.9 0.0
17/03:00am 15.1 11.1 2.6 43 5.8 SE 13 19 7 10 1016.8 1015.8 0.0
17/02:30am 15.1 11.4 2.6 43 5.8 SE 11 15 6 8 1016.9 1015.9 0.0
17/02:00am 15.0 11.7 2.5 43 5.7 SE 9 13 5 7 1017.1 1016.0 0.0
17/01:30am 15.7 12.5 2.8 42 6.0 SE 9 13 5 7 1017.3 1016.2 0.0
17/01:00am 16.4 12.4 3.1 41 6.3 SSE 13 20 7 11 1017.3 1016.2 0.0
17/12:30am 16.8 12.2 3.5 41 6.3 SE 17 22 9 12 1017.2 1016.1 0.0
17/12:00am 17.5 12.5 3.4 39 6.7 SSE 19 24 10 13 1017.5 1016.4 0.0
 
Date/Time
WST
Temp
°C
App
Temp
°C
Dew
Point
°C
Rel
Hum
%
Delta-T
°C
Wind Press
QNH
hPa
Press
MSL
hPa
Rain since
9am
mm
Dir  Spd
km/h
Gust
km/h
Spd
kts
Gust
kts
16/11:30pm 18.0 13.4 3.9 39 6.8 SSE 17 20 9 11 1017.5 1016.4 0.0
16/11:00pm 18.5 14.0 4.3 39 6.9 S 17 22 9 12 1017.7 1016.7 0.0
16/10:30pm 19.0 14.2 4.4 38 7.2 S 19 26 10 14 1017.6 1016.6 0.0
16/10:00pm 19.7 15.0 5.0 38 7.4 S 19 26 10 14 1017.6 1016.6 0.0
16/09:30pm 20.2 15.6 5.4 38 7.5 S 19 28 10 15 1017.5 1016.4 0.0
16/09:00pm 20.5 16.4 6.1 39 7.4 SSW 17 24 9 13 1017.4 1016.3 0.0
16/08:30pm 20.9 18.0 6.4 39 7.5 S 11 15 6 8 1017.2 1016.1 0.0
16/08:00pm 21.5 18.2 6.2 37 7.9 S 13 19 7 10 1016.8 1015.8 0.0
16/07:30pm 22.3 18.9 6.1 35 8.4 S 13 19 7 10 1016.7 1015.7 0.0
16/07:00pm 21.9 18.7 5.3 34 8.5 SSW 11 13 6 7 1016.4 1015.4 0.0
16/06:30pm 22.5 20.3 5.4 33 8.8 S 6 6 3 3 1016.1 1015.1 0.0
16/06:00pm 23.6 21.4 5.5 31 9.4 S 6 9 3 5 1015.9 1014.8 0.0

Other Formats:

Comma delimited format used in spreadsheet applications
http://www.bom.gov.au/fwo/IDW60801/IDW60801.99400.axf

JavaScript Object Notation format (JSON) in row-major order
http://www.bom.gov.au/fwo/IDW60801/IDW60801.99400.json